Airfield :







YOU CAN JOIN US ON...

 
LOGIN :

Register | Disclaimer

   EN    FR    IT 

 









Legend :    VFR   Marginal VFR   IFR   Intensive IFR   Very Intensive IFR
Visi :
Ceiling :
>= 8 km
>= 3000ft
5 to 8 km
1000 to 3000 ft
1500m to 5 km
500 to 1000 ft
800 to 1500m
200 to 500 ft
< 800m
< 200 ft
Symbols :   Thunderstorms  Fog  Heavy snow  Heavy precipitations  Wind > 20 kt







- Airport Elevation : 215 ft
- IATA code : MSS


KMSS - Massena International Richards Field

CURRENT METAR :
  • 250053Z AUTO 05003KT 10SM CLR 21/11 A2980 RMK AO2 SLP088 T02110106

EXPIRED METARs :
  • 242353Z AUTO 06003KT 10SM CLR 22/11 A2980 RMK AO2 SLP091 T02220106 10278 20222 56008
  • 242253Z AUTO 06006KT 10SM CLR 24/11 A2980 RMK AO2 SLP091 T02390106

TAF KMSS
Valid from the 25 at 00:00 until the 26 at 00:00 UTC


242332Z 2500/2524 07006KT P6SM BKN200
FM250900 07005KT P6SM VCSH OVC060
FM251200 09006KT 5SM -SHRA BR OVC035
FM251800 23010KT P6SM OVC025
FM252100 22011KT P6SM SCT090
KZBW FIR / North America



MET'MAP, your aeronautical weather chart ! - Copyright ORBIFLY December 2007 - Disclaimer

ORBIFLY MET'MAP TEAM :

Programming & Development : Alexandra Zaïnal
Concept & Development : Baudouin d'Aumeries
Co-Development & Prog : Marc-Olivier Méhu
Technical & hardware support : Manuel Goepfert

Contact : metmap@orbifly.com




SOURCES & CREDITS :

   NOAA